createdAt,value
2022-08-16T00:00:38.679Z,11.93
2022-08-16T00:03:13.338Z,10.55
2022-08-16T00:05:48.161Z,10.03
2022-08-16T00:08:36.129Z,9.43
2022-08-16T00:11:15.615Z,10.20
2022-08-16T00:13:53.999Z,10.05
2022-08-16T00:17:01.133Z,8.35
2022-08-16T00:19:18.083Z,8.37
2022-08-16T00:21:53.384Z,9.20
2022-08-16T00:24:31.170Z,11.95
2022-08-16T00:27:03.327Z,9.07
2022-08-16T00:29:33.636Z,9.35
2022-08-16T00:32:06.150Z,9.57
2022-08-16T00:34:44.781Z,9.73
2022-08-16T00:37:24.698Z,8.63
2022-08-16T00:39:57.225Z,10.95
2022-08-16T00:42:32.166Z,10.50
2022-08-16T00:45:11.856Z,9.90
2022-08-16T00:47:49.434Z,8.73
2022-08-16T00:50:22.199Z,8.70
2022-08-16T00:53:11.059Z,8.40
2022-08-16T00:55:43.184Z,9.38
2022-08-16T00:58:16.269Z,8.60
2022-08-16T01:00:54.144Z,9.52
2022-08-16T01:03:31.764Z,8.52
2022-08-16T01:06:39.765Z,8.88
2022-08-16T01:08:59.991Z,8.50
2022-08-16T01:11:30.728Z,8.80
2022-08-16T01:14:05.952Z,8.70
2022-08-16T01:16:35.389Z,9.65
2022-08-16T01:19:25.882Z,9.85
2022-08-16T01:22:47.568Z,9.70
2022-08-16T01:24:58.611Z,9.60
2022-08-16T01:27:36.435Z,10.63
2022-08-16T01:30:20.487Z,8.57
2022-08-16T01:32:59.487Z,10.48
2022-08-16T01:35:37.735Z,13.45
2022-08-16T01:38:19.516Z,10.37
2022-08-16T01:40:50.091Z,11.20
2022-08-16T01:43:19.415Z,8.75
2022-08-16T01:45:48.807Z,10.32
2022-08-16T01:48:30.175Z,10.80
2022-08-16T01:51:09.032Z,7.97
2022-08-16T01:53:45.410Z,8.60
2022-08-16T01:56:25.525Z,7.85
2022-08-16T01:58:59.934Z,10.10
2022-08-16T02:01:29.504Z,11.90
2022-08-16T02:04:10.735Z,10.33
2022-08-16T02:06:45.894Z,10.75
2022-08-16T02:09:17.688Z,9.23
2022-08-16T02:11:53.165Z,10.30
2022-08-16T02:14:27.438Z,8.90
2022-08-16T02:16:59.051Z,11.17
2022-08-16T02:19:59.920Z,9.30
2022-08-16T02:22:33.874Z,10.02
2022-08-16T02:25:05.749Z,10.70
2022-08-16T02:27:35.071Z,9.85
2022-08-16T02:30:09.010Z,10.33
2022-08-16T02:32:49.058Z,9.77
2022-08-16T02:35:23.711Z,9.68
2022-08-16T02:37:56.059Z,8.48
2022-08-16T02:40:27.050Z,13.43
2022-08-16T02:42:57.669Z,9.63
2022-08-16T02:45:29.919Z,10.02
2022-08-16T02:48:01.258Z,9.20
2022-08-16T02:51:05.966Z,9.88
2022-08-16T02:53:36.935Z,10.60
2022-08-16T02:56:09.874Z,7.30
2022-08-16T02:58:40.074Z,10.52
2022-08-16T03:01:13.892Z,10.10
2022-08-16T03:04:48.911Z,9.15
2022-08-16T03:06:43.765Z,9.07
2022-08-16T03:09:16.244Z,9.17
2022-08-16T03:11:47.530Z,8.57
2022-08-16T03:14:21.258Z,9.50
2022-08-16T03:16:59.411Z,7.82
2022-08-16T03:19:48.797Z,7.40
2022-08-16T03:22:28.112Z,8.57
2022-08-16T03:24:58.809Z,9.10
2022-08-16T03:27:32.277Z,8.25
2022-08-16T03:30:17.347Z,7.35
2022-08-16T03:32:51.386Z,8.20
2022-08-16T03:35:22.945Z,8.43
2022-08-16T03:38:02.805Z,8.13
2022-08-16T03:40:35.492Z,9.45
2022-08-16T03:43:19.919Z,10.15
2022-08-16T03:45:52.831Z,9.65
2022-08-16T03:48:36.442Z,8.67
2022-08-16T03:51:09.028Z,8.07
2022-08-16T03:53:38.656Z,8.82
2022-08-16T03:56:19.784Z,7.50
2022-08-16T03:58:52.699Z,10.52
2022-08-16T04:01:23.462Z,13.10
2022-08-16T04:03:55.161Z,9.65
2022-08-16T04:06:24.584Z,9.90
2022-08-16T04:08:54.208Z,8.10
2022-08-16T04:11:23.712Z,8.88
2022-08-16T04:14:01.060Z,8.93
2022-08-16T04:16:43.832Z,7.63
2022-08-16T04:19:13.748Z,7.43
2022-08-16T04:21:46.057Z,7.70
2022-08-16T04:24:16.815Z,7.45
2022-08-16T04:26:46.767Z,7.43
2022-08-16T04:29:23.218Z,8.30
2022-08-16T04:31:55.779Z,9.25
2022-08-16T04:34:27.344Z,7.00
2022-08-16T04:36:58.120Z,8.52
2022-08-16T04:39:45.712Z,10.37
2022-08-16T04:42:18.995Z,8.73
2022-08-16T04:44:58.565Z,10.40
2022-08-16T04:47:35.773Z,7.35
2022-08-16T04:50:30.419Z,8.30
2022-08-16T04:53:00.772Z,7.70
2022-08-16T04:55:37.553Z,8.40
2022-08-16T04:58:38.365Z,7.82
2022-08-16T05:00:58.142Z,10.05
2022-08-16T05:03:28.003Z,8.40
2022-08-16T05:06:04.790Z,9.77
2022-08-16T05:08:35.240Z,9.35
2022-08-16T05:11:08.451Z,8.02
2022-08-16T05:13:42.443Z,9.25
2022-08-16T05:16:21.439Z,8.35
2022-08-16T05:18:53.424Z,9.70
2022-08-16T05:21:27.042Z,8.65
2022-08-16T05:24:00.086Z,11.85
2022-08-16T05:26:33.097Z,8.55
2022-08-16T05:29:04.805Z,7.05
2022-08-16T05:31:35.080Z,7.60
2022-08-16T05:34:05.911Z,11.63
2022-08-16T05:36:51.338Z,11.98
2022-08-16T05:39:22.363Z,8.10
2022-08-16T05:41:52.124Z,8.50
2022-08-16T05:44:24.978Z,8.03
2022-08-16T05:46:57.175Z,7.65
2022-08-16T05:49:38.477Z,6.47
2022-08-16T05:52:13.406Z,8.10
2022-08-16T05:54:58.451Z,7.63
2022-08-16T05:57:35.577Z,5.47
2022-08-16T06:00:09.387Z,9.02
2022-08-16T06:02:39.355Z,7.70
2022-08-16T06:05:10.730Z,6.25
2022-08-16T06:07:40.388Z,7.15
2022-08-16T06:10:10.364Z,9.53
2022-08-16T06:12:41.360Z,8.35
2022-08-16T06:15:20.233Z,7.53
2022-08-16T06:17:51.683Z,7.47
2022-08-16T06:20:34.712Z,7.40
2022-08-16T06:23:11.850Z,7.40
2022-08-16T06:25:53.279Z,11.15
2022-08-16T06:28:36.700Z,6.78
2022-08-16T06:31:07.232Z,6.88
2022-08-16T06:33:42.348Z,5.13
2022-08-16T06:36:15.337Z,6.20
2022-08-16T06:38:52.254Z,7.55
2022-08-16T06:41:27.387Z,8.23
2022-08-16T06:43:57.146Z,6.57
2022-08-16T06:46:34.240Z,7.93
2022-08-16T06:49:05.397Z,4.83
2022-08-16T06:51:45.870Z,7.35
2022-08-16T06:54:17.853Z,6.25
2022-08-16T06:56:47.280Z,5.70
2022-08-16T06:59:25.669Z,8.05
2022-08-16T07:01:58.045Z,5.53
2022-08-16T07:04:32.735Z,5.90
2022-08-16T07:07:09.777Z,8.52
2022-08-16T07:09:39.594Z,8.13
2022-08-16T07:12:09.220Z,11.95
2022-08-16T07:14:38.463Z,5.60
2022-08-16T07:17:11.366Z,5.50
2022-08-16T07:20:29.625Z,6.93
2022-08-16T07:22:38.386Z,5.28
2022-08-16T07:25:20.799Z,6.43
2022-08-16T07:27:52.284Z,7.43
2022-08-16T07:30:39.174Z,5.75
2022-08-16T07:33:16.316Z,7.72
2022-08-16T07:35:49.693Z,7.90
2022-08-16T07:38:19.684Z,6.95
2022-08-16T07:41:00.687Z,5.17
2022-08-16T07:43:31.336Z,5.47
2022-08-16T07:46:01.495Z,5.78
2022-08-16T07:48:31.230Z,5.90
2022-08-16T07:51:08.669Z,8.02
2022-08-16T07:53:43.862Z,4.37
2022-08-16T07:56:14.376Z,5.60
2022-08-16T07:58:44.079Z,6.78
2022-08-16T08:01:14.907Z,5.60
2022-08-16T08:03:48.926Z,6.07
2022-08-16T08:06:25.073Z,7.47
2022-08-16T08:08:57.505Z,6.13
2022-08-16T08:11:30.245Z,5.80
2022-08-16T08:14:03.150Z,5.28
2022-08-16T08:16:35.721Z,6.03
2022-08-16T08:19:05.180Z,5.40
2022-08-16T08:21:59.353Z,5.43
2022-08-16T08:24:32.215Z,6.63
2022-08-16T08:27:04.226Z,6.05
2022-08-16T08:29:37.725Z,4.88
2022-08-16T08:32:57.920Z,8.10
2022-08-16T08:35:03.870Z,6.60
2022-08-16T08:37:54.074Z,6.50
2022-08-16T08:40:26.829Z,4.60
2022-08-16T08:43:12.614Z,7.80
2022-08-16T08:45:52.500Z,6.37
2022-08-16T08:48:33.620Z,7.13
2022-08-16T08:51:08.768Z,6.05
2022-08-16T08:53:39.864Z,9.23
2022-08-16T08:56:23.143Z,8.90
2022-08-16T08:58:59.118Z,6.03
2022-08-16T09:01:36.932Z,6.55
2022-08-16T09:04:23.253Z,5.60
2022-08-16T09:06:53.756Z,6.75
2022-08-16T09:09:23.312Z,5.47
2022-08-16T09:11:53.546Z,5.73
2022-08-16T09:14:34.242Z,5.20
2022-08-16T09:17:11.354Z,6.38
2022-08-16T09:19:48.494Z,4.88
2022-08-16T09:22:23.121Z,6.72
2022-08-16T09:24:58.149Z,5.43
2022-08-16T09:27:46.652Z,8.27
2022-08-16T09:30:32.634Z,5.53
2022-08-16T09:33:08.156Z,4.93
2022-08-16T09:35:39.403Z,4.72
2022-08-16T09:38:12.357Z,7.23
2022-08-16T09:40:44.288Z,5.78
2022-08-16T09:43:58.329Z,5.55
2022-08-16T09:46:49.120Z,5.03
2022-08-16T09:48:59.680Z,6.57
2022-08-16T09:51:37.187Z,5.97
2022-08-16T09:54:09.671Z,4.38
2022-08-16T09:56:52.791Z,6.53
2022-08-16T09:59:25.178Z,5.07
2022-08-16T10:01:55.690Z,6.75
2022-08-16T10:04:30.460Z,6.27
2022-08-16T10:07:13.105Z,5.95
2022-08-16T10:09:54.821Z,5.55
2022-08-16T10:12:42.264Z,5.82
2022-08-16T10:15:15.351Z,6.68
2022-08-16T10:17:59.883Z,5.03
2022-08-16T10:20:34.817Z,4.82
2022-08-16T10:23:06.800Z,5.38
2022-08-16T10:27:19.332Z,5.68
2022-08-16T10:28:32.159Z,6.50
2022-08-16T10:31:05.411Z,7.03
2022-08-16T10:33:40.312Z,7.05
2022-08-16T10:36:12.496Z,6.00
2022-08-16T10:39:01.737Z,7.60
2022-08-16T10:41:31.303Z,7.03
2022-08-16T10:44:02.193Z,4.00
2022-08-16T10:46:39.531Z,4.85
2022-08-16T10:49:16.665Z,4.78
2022-08-16T10:52:01.884Z,4.80
2022-08-16T10:54:58.596Z,6.97
2022-08-16T10:57:26.292Z,9.27
2022-08-16T11:00:04.900Z,6.07
2022-08-16T11:02:59.374Z,6.57
2022-08-16T11:05:23.865Z,5.75
2022-08-16T11:07:54.105Z,5.05
2022-08-16T11:19:12.351Z,5.28
2022-08-16T11:24:42.280Z,4.30
2022-08-16T11:27:23.507Z,4.93
2022-08-16T11:29:56.637Z,6.72
2022-08-16T11:32:32.505Z,5.88
2022-08-16T11:35:10.392Z,4.22
2022-08-16T11:40:36.301Z,4.60
2022-08-16T11:43:06.442Z,5.85
2022-08-16T11:45:38.476Z,4.93
2022-08-16T11:48:09.078Z,4.80
2022-08-16T11:50:38.328Z,4.37
2022-08-16T11:53:09.156Z,7.07
2022-08-16T11:55:39.866Z,6.07
2022-08-16T11:58:14.523Z,5.35
2022-08-16T12:00:51.148Z,6.07
2022-08-16T12:03:34.583Z,4.53
2022-08-16T12:06:10.597Z,4.47
2022-08-16T12:08:41.545Z,4.20
2022-08-16T12:11:12.333Z,6.90
2022-08-16T12:13:42.849Z,5.18
2022-08-16T12:16:13.256Z,7.17
2022-08-16T12:21:58.102Z,5.13
2022-08-16T12:24:26.073Z,5.53
2022-08-16T12:26:56.542Z,5.45
2022-08-16T12:29:29.438Z,5.30
2022-08-16T12:32:01.587Z,5.30
2022-08-16T12:34:52.785Z,7.07
2022-08-16T12:37:24.443Z,6.55
2022-08-16T12:39:56.366Z,4.88
2022-08-16T12:42:35.372Z,3.80
2022-08-16T12:45:09.799Z,4.30
2022-08-16T12:47:53.213Z,4.78
2022-08-16T12:50:33.219Z,7.03
2022-08-16T12:53:03.449Z,5.13
2022-08-16T12:55:33.360Z,7.17
2022-08-16T12:58:06.177Z,5.43
2022-08-16T13:00:44.468Z,4.97
2022-08-16T13:03:13.805Z,4.95
2022-08-16T13:05:53.496Z,8.13
2022-08-16T13:08:27.441Z,7.77
2022-08-16T13:11:00.244Z,5.63
2022-08-16T13:13:29.781Z,6.40
2022-08-16T13:16:05.690Z,6.60
2022-08-16T13:18:40.225Z,5.15
2022-08-16T13:21:10.752Z,4.33
2022-08-16T13:23:43.689Z,6.43
2022-08-16T13:26:17.267Z,5.38
2022-08-16T13:28:47.696Z,4.68
2022-08-16T13:31:17.251Z,4.43
2022-08-16T13:33:46.952Z,6.37
2022-08-16T13:36:32.347Z,5.25
2022-08-16T13:39:09.789Z,5.10
2022-08-16T13:41:40.804Z,5.15
2022-08-16T13:44:10.201Z,3.90
2022-08-16T13:46:41.762Z,4.07
2022-08-16T13:49:11.664Z,4.40
2022-08-16T13:51:41.571Z,6.20
2022-08-16T13:54:11.286Z,6.32
2022-08-16T13:56:41.458Z,5.53
2022-08-16T13:59:20.303Z,4.73
2022-08-16T14:01:56.673Z,5.45
2022-08-16T14:04:35.377Z,6.07
2022-08-16T14:07:09.099Z,5.00
2022-08-16T14:09:39.543Z,5.40
2022-08-16T14:12:22.102Z,4.13
2022-08-16T14:14:56.409Z,4.53
2022-08-16T14:17:27.586Z,6.22
2022-08-16T14:19:59.855Z,4.40
2022-08-16T14:22:35.747Z,8.02
2022-08-16T14:25:11.674Z,5.50
2022-08-16T14:27:46.208Z,4.93
2022-08-16T14:30:18.774Z,4.55
2022-08-16T14:32:50.939Z,6.28
2022-08-16T14:35:36.800Z,5.45
2022-08-16T14:38:17.605Z,5.60
2022-08-16T14:40:54.886Z,4.70
2022-08-16T14:43:25.666Z,4.47
2022-08-16T14:45:59.175Z,6.03
2022-08-16T14:48:28.471Z,7.43
2022-08-16T14:50:58.674Z,4.53
2022-08-16T14:53:29.323Z,5.63
2022-08-16T14:56:02.528Z,7.13
2022-08-16T14:58:36.701Z,4.07
2022-08-16T15:01:09.705Z,3.88
2022-08-16T15:03:44.508Z,4.67
2022-08-16T15:06:14.352Z,3.75
2022-08-16T15:08:45.811Z,4.53
2022-08-16T15:11:15.283Z,3.42
2022-08-16T15:13:47.374Z,4.82
2022-08-16T15:16:16.750Z,4.87
2022-08-16T15:18:47.460Z,4.10
2022-08-16T15:21:16.752Z,4.43
2022-08-16T15:23:46.157Z,4.53
2022-08-16T15:26:29.588Z,4.82
2022-08-16T15:29:05.752Z,3.80
2022-08-16T15:31:37.679Z,4.03
2022-08-16T15:34:07.235Z,5.07
2022-08-16T15:36:42.935Z,5.18
2022-08-16T15:39:27.998Z,4.22
2022-08-16T15:42:04.108Z,4.87
2022-08-16T15:44:44.684Z,8.27
2022-08-16T15:47:25.718Z,5.80
2022-08-16T15:49:56.338Z,3.53
2022-08-16T15:52:30.691Z,3.67
2022-08-16T15:55:13.414Z,3.47
2022-08-16T15:57:51.689Z,5.95
2022-08-16T16:00:22.398Z,4.00
2022-08-16T16:03:09.386Z,3.40
2022-08-16T16:05:42.405Z,13.32
2022-08-16T16:08:14.259Z,5.63
2022-08-16T16:10:54.743Z,4.47
2022-08-16T16:13:24.522Z,5.55
2022-08-16T16:15:55.820Z,5.60
2022-08-16T16:18:26.109Z,3.25
2022-08-16T16:20:58.614Z,4.83
2022-08-16T16:23:33.750Z,3.75
2022-08-16T16:26:05.910Z,4.90
2022-08-16T16:29:04.336Z,5.57
2022-08-16T16:31:26.941Z,5.50
2022-08-16T16:34:00.816Z,3.83
2022-08-16T16:36:34.576Z,3.92
2022-08-16T16:39:09.258Z,3.67
2022-08-16T16:41:39.698Z,6.40
2022-08-16T16:44:11.533Z,4.60
2022-08-16T16:46:57.895Z,3.80
2022-08-16T16:49:27.337Z,4.78
2022-08-16T16:52:00.098Z,5.65
2022-08-16T16:54:36.057Z,4.05
2022-08-16T16:57:05.801Z,4.47
2022-08-16T16:59:32.451Z,4.00
2022-08-16T17:02:41.800Z,4.05
2022-08-16T17:04:53.340Z,3.80
2022-08-16T17:07:24.227Z,5.38
2022-08-16T17:09:53.815Z,3.42
2022-08-16T17:15:13.276Z,4.35
2022-08-16T17:20:33.510Z,7.00
2022-08-16T17:23:05.031Z,3.78
2022-08-16T17:25:35.076Z,3.83
2022-08-16T17:28:58.930Z,3.40
2022-08-16T17:30:56.328Z,6.45
2022-08-16T17:33:26.382Z,4.47
2022-08-16T17:35:56.129Z,4.25
2022-08-16T17:38:38.561Z,3.90
2022-08-16T17:39:26.139Z,3.27
2022-08-16T17:39:28.093Z,3.60
2022-08-16T17:41:13.459Z,4.63
2022-08-16T17:43:44.890Z,6.60
2022-08-16T17:46:51.603Z,4.22
2022-08-16T17:49:04.057Z,5.35
2022-08-16T17:51:35.172Z,6.57
2022-08-16T17:54:04.870Z,6.03
2022-08-16T17:56:34.394Z,6.55
2022-08-16T17:59:04.604Z,4.53
2022-08-16T18:01:33.925Z,6.05
2022-08-16T18:04:08.669Z,4.03
2022-08-16T18:06:39.867Z,4.63
2022-08-16T18:09:10.535Z,5.28
2022-08-16T18:11:44.740Z,6.35
2022-08-16T18:14:15.835Z,4.70
2022-08-16T18:16:46.354Z,4.80
2022-08-16T18:19:15.607Z,3.83
2022-08-16T18:21:57.661Z,8.68
2022-08-16T18:24:29.343Z,6.20
2022-08-16T18:27:06.613Z,7.88
2022-08-16T18:29:49.977Z,6.43
2022-08-16T18:32:24.502Z,7.40
2022-08-16T18:34:55.531Z,7.53
2022-08-16T18:37:26.530Z,8.13
2022-08-16T18:39:58.170Z,7.13
2022-08-16T18:42:27.613Z,9.10
2022-08-16T18:44:57.010Z,12.40
2022-08-16T18:47:26.244Z,9.00
2022-08-16T18:49:55.678Z,7.22
2022-08-16T18:52:26.061Z,8.93
2022-08-16T18:55:01.612Z,7.97
2022-08-16T18:57:43.583Z,6.13
2022-08-16T19:00:14.900Z,5.70
2022-08-16T19:02:58.216Z,7.28
2022-08-16T19:05:30.979Z,4.75
2022-08-16T19:08:01.741Z,6.80
2022-08-16T19:10:32.616Z,7.32
2022-08-16T19:13:02.632Z,7.32
2022-08-16T19:15:31.938Z,6.90
2022-08-16T19:18:01.430Z,6.72
2022-08-16T19:20:31.884Z,6.30
2022-08-16T19:23:05.935Z,5.07
2022-08-16T19:25:48.347Z,5.88
2022-08-16T19:28:51.692Z,8.95
2022-08-16T19:31:18.092Z,4.68
2022-08-16T19:33:53.836Z,4.97
2022-08-16T19:36:30.513Z,7.75
2022-08-16T19:39:04.289Z,6.47
2022-08-16T19:41:35.179Z,5.82
2022-08-16T19:44:04.508Z,5.70
2022-08-16T19:46:33.881Z,4.60
2022-08-16T19:49:06.257Z,5.00
2022-08-16T19:51:35.807Z,5.47
2022-08-16T19:54:07.224Z,4.57
2022-08-16T19:56:36.452Z,8.55
2022-08-16T19:59:22.355Z,5.07
2022-08-16T20:01:55.255Z,5.22
2022-08-16T20:04:26.955Z,6.28
2022-08-16T20:06:57.036Z,8.73
2022-08-16T20:09:26.980Z,4.70
2022-08-16T20:11:56.592Z,4.70
2022-08-16T20:14:26.724Z,5.05
2022-08-16T20:16:58.738Z,4.88
2022-08-16T20:19:29.760Z,6.45
2022-08-16T20:22:09.144Z,5.45
2022-08-16T20:24:38.535Z,5.57
2022-08-16T20:27:10.065Z,5.95
2022-08-16T20:29:40.876Z,5.53
2022-08-16T20:32:12.056Z,7.38
2022-08-16T20:34:41.615Z,6.07
2022-08-16T20:37:12.961Z,5.97
2022-08-16T20:39:44.338Z,4.53
2022-08-16T20:42:15.429Z,5.68
2022-08-16T20:44:45.176Z,5.47
2022-08-16T20:47:14.764Z,4.05
2022-08-16T20:49:44.179Z,4.73
2022-08-16T20:52:15.419Z,4.60
2022-08-16T20:54:45.770Z,4.45
2022-08-16T20:57:16.484Z,5.90
2022-08-16T20:59:50.044Z,11.95
2022-08-16T21:02:26.501Z,7.03
2022-08-16T21:04:56.337Z,5.65
2022-08-16T21:07:25.951Z,5.72
2022-08-16T21:09:55.249Z,8.63
2022-08-16T21:12:24.531Z,4.82
2022-08-16T21:14:56.885Z,5.47
2022-08-16T21:17:26.168Z,6.43
2022-08-16T21:19:55.381Z,6.60
2022-08-16T21:22:25.264Z,6.30
2022-08-16T21:24:54.497Z,7.00
2022-08-16T21:27:24.423Z,5.30
2022-08-16T21:29:54.693Z,6.03
2022-08-16T21:32:35.191Z,5.00
2022-08-16T21:35:15.899Z,5.97
2022-08-16T21:38:01.042Z,7.90
2022-08-16T21:40:37.005Z,5.57
2022-08-16T21:43:15.717Z,8.35
2022-08-16T21:45:46.067Z,7.18
2022-08-16T21:48:17.423Z,5.10
2022-08-16T21:51:08.412Z,5.68
2022-08-16T21:53:38.712Z,5.87
2022-08-16T21:56:12.678Z,6.90
2022-08-16T21:58:52.394Z,5.20
2022-08-16T22:01:23.663Z,5.20
2022-08-16T22:04:03.667Z,6.82
2022-08-16T22:06:44.009Z,5.23
2022-08-16T22:09:15.790Z,5.95
2022-08-16T22:11:45.931Z,5.72
2022-08-16T22:14:15.301Z,10.48
2022-08-16T22:16:44.839Z,10.18
2022-08-16T22:19:14.468Z,5.30
2022-08-16T22:21:43.795Z,6.97
2022-08-16T22:24:13.056Z,8.43
2022-08-16T22:26:43.494Z,6.63
2022-08-16T22:29:15.728Z,5.20
2022-08-16T22:31:45.826Z,5.87
2022-08-16T22:34:15.869Z,5.25
2022-08-16T22:36:45.161Z,6.78
2022-08-16T22:39:16.295Z,4.38
2022-08-16T22:41:49.741Z,6.78
2022-08-16T22:44:19.781Z,7.67
2022-08-16T22:46:49.296Z,5.38
2022-08-16T22:49:18.947Z,5.35
2022-08-16T22:51:49.006Z,4.82
2022-08-16T22:54:41.348Z,7.97
2022-08-16T22:57:08.792Z,4.97
2022-08-16T22:59:38.397Z,6.45
2022-08-16T23:02:09.932Z,8.38
2022-08-16T23:04:39.424Z,6.40
2022-08-16T23:07:08.674Z,6.63
2022-08-16T23:09:38.044Z,5.20
2022-08-16T23:12:08.228Z,5.30
2022-08-16T23:14:37.547Z,4.95
2022-08-16T23:17:07.588Z,6.40
2022-08-16T23:19:37.808Z,6.03
2022-08-16T23:22:07.498Z,6.60
2022-08-16T23:24:36.961Z,5.18
2022-08-16T23:27:10.053Z,6.53
2022-08-16T23:29:39.394Z,5.40
2022-08-16T23:32:14.460Z,4.93
2022-08-16T23:34:43.745Z,5.73
2022-08-16T23:37:13.000Z,7.68
2022-08-16T23:39:43.631Z,7.53
2022-08-16T23:42:53.297Z,5.97
2022-08-16T23:45:08.230Z,9.40
2022-08-16T23:47:37.486Z,6.70
2022-08-16T23:50:07.141Z,5.18
2022-08-16T23:52:53.549Z,7.65
2022-08-16T23:55:24.929Z,5.60
2022-08-16T23:57:54.314Z,6.32
